createdAt,value
2022-09-13T00:00:09.965Z,2.93
2022-09-13T00:05:13.454Z,3.10
2022-09-13T00:10:18.699Z,2.80
2022-09-13T00:15:22.695Z,3.67
2022-09-13T00:20:26.524Z,2.97
2022-09-13T00:25:31.943Z,3.37
2022-09-13T00:30:35.711Z,3.83
2022-09-13T00:35:39.857Z,3.27
2022-09-13T00:40:44.748Z,3.83
2022-09-13T00:45:49.914Z,3.50
2022-09-13T00:50:57.121Z,3.20
2022-09-13T00:56:04.208Z,3.20
2022-09-13T01:01:11.611Z,3.33
2022-09-13T01:06:19.321Z,3.07
2022-09-13T01:11:31.156Z,3.00
2022-09-13T01:16:34.845Z,3.80
2022-09-13T01:22:13.746Z,3.53
2022-09-13T01:27:31.310Z,3.50
2022-09-13T01:32:47.053Z,3.00
2022-09-13T01:37:58.967Z,3.10
2022-09-13T01:43:17.413Z,3.17
2022-09-13T01:48:31.570Z,3.80
2022-09-13T01:53:47.087Z,3.30
2022-09-13T01:58:58.035Z,3.23
2022-09-13T02:04:08.429Z,3.23
2022-09-13T02:09:19.631Z,4.10
2022-09-13T02:14:32.062Z,3.20
2022-09-13T02:19:39.813Z,3.67
2022-09-13T02:24:47.432Z,3.20
2022-09-13T02:29:54.598Z,3.70
2022-09-13T02:35:05.795Z,3.93
2022-09-13T02:40:15.378Z,2.80
2022-09-13T02:45:21.646Z,3.67
2022-09-13T02:50:45.837Z,4.00
2022-09-13T02:55:56.682Z,2.80
2022-09-13T03:01:00.285Z,3.70
2022-09-13T03:06:05.891Z,3.37
2022-09-13T03:11:18.718Z,3.30
2022-09-13T03:16:38.625Z,3.80
2022-09-13T03:21:59.683Z,3.40
2022-09-13T03:27:14.910Z,4.43
2022-09-13T03:32:25.306Z,3.50
2022-09-13T03:37:36.119Z,3.53
2022-09-13T03:42:46.735Z,4.27
2022-09-13T03:47:52.383Z,3.20
2022-09-13T03:53:01.997Z,3.33
2022-09-13T03:58:05.468Z,3.70
2022-09-13T04:03:09.286Z,4.10
2022-09-13T04:08:14.197Z,3.47
2022-09-13T04:13:18.357Z,3.80
2022-09-13T04:18:22.379Z,4.50
2022-09-13T04:23:29.888Z,3.30
2022-09-13T04:28:33.581Z,4.10
2022-09-13T04:33:38.893Z,3.50
2022-09-13T04:38:45.233Z,3.60
2022-09-13T04:43:51.613Z,4.00
2022-09-13T04:48:55.886Z,4.03
2022-09-13T04:54:01.075Z,4.20
2022-09-13T04:59:05.180Z,4.40
2022-09-13T05:04:09.370Z,3.73
2022-09-13T05:09:15.985Z,4.43
2022-09-13T05:14:19.510Z,4.50
2022-09-13T05:19:23.408Z,4.70
2022-09-13T05:24:28.598Z,4.67
2022-09-13T05:29:32.058Z,4.90
2022-09-13T05:34:35.609Z,5.50
2022-09-13T05:40:00.696Z,4.93
2022-09-13T05:45:06.959Z,4.77
2022-09-13T05:50:22.273Z,4.87
2022-09-13T05:55:36.358Z,5.27
2022-09-13T06:00:39.891Z,5.53
2022-09-13T06:05:43.423Z,4.33
2022-09-13T06:10:57.191Z,5.00
2022-09-13T06:16:02.184Z,5.60
2022-09-13T06:21:07.795Z,4.17
2022-09-13T06:26:14.716Z,3.37
2022-09-13T06:31:20.325Z,3.00
2022-09-13T06:36:23.906Z,3.40
2022-09-13T06:41:28.871Z,2.67
2022-09-13T06:46:34.774Z,3.00
2022-09-13T06:51:38.312Z,3.07
2022-09-13T06:56:43.229Z,2.67
2022-09-13T07:01:46.916Z,3.03
2022-09-13T07:06:51.213Z,3.10
2022-09-13T07:11:57.148Z,2.83
2022-09-13T07:17:00.846Z,3.70
2022-09-13T07:22:05.242Z,3.20
2022-09-13T07:27:10.153Z,4.03
2022-09-13T07:32:13.611Z,5.40
2022-09-13T07:37:17.147Z,5.73
2022-09-13T07:42:21.992Z,3.90
2022-09-13T07:47:25.629Z,5.00
2022-09-13T07:52:30.137Z,5.03
2022-09-13T07:57:35.050Z,4.53
2022-09-13T08:02:39.119Z,4.40
2022-09-13T08:07:43.549Z,6.40
2022-09-13T08:12:49.177Z,4.87
2022-09-13T08:17:54.114Z,7.30
2022-09-13T08:22:58.227Z,4.77
2022-09-13T08:28:03.386Z,4.20
2022-09-13T08:33:08.235Z,4.00
2022-09-13T08:38:11.983Z,3.80
2022-09-13T08:43:26.233Z,4.80
2022-09-13T08:48:35.666Z,3.90
2022-09-13T08:53:46.782Z,6.30
2022-09-13T08:59:11.045Z,5.10
2022-09-13T09:04:27.787Z,3.80
2022-09-13T09:09:35.752Z,6.23
2022-09-13T09:14:44.631Z,3.33
2022-09-13T09:19:53.502Z,3.50
2022-09-13T09:24:58.529Z,3.70
2022-09-13T09:30:04.269Z,2.97
2022-09-13T09:35:16.114Z,4.57
2022-09-13T09:40:20.446Z,3.30
2022-09-13T09:45:29.952Z,3.10
2022-09-13T09:50:37.643Z,2.70
2022-09-13T09:55:47.022Z,3.60
2022-09-13T10:00:56.416Z,3.67
2022-09-13T10:06:07.600Z,3.57
2022-09-13T10:11:12.281Z,2.90
2022-09-13T10:16:27.369Z,3.00
2022-09-13T10:21:31.050Z,2.10
2022-09-13T10:26:36.473Z,1.90
2022-09-13T10:31:43.809Z,1.53
2022-09-13T10:36:54.315Z,1.87
2022-09-13T10:42:02.279Z,1.57
2022-09-13T10:47:12.472Z,1.50
2022-09-13T10:52:28.872Z,1.90
2022-09-13T10:57:36.016Z,1.70
2022-09-13T11:02:55.262Z,1.80
2022-09-13T11:08:17.085Z,1.77
2022-09-13T11:13:30.227Z,2.10
2022-09-13T11:18:55.793Z,1.80
2022-09-13T11:24:15.644Z,2.10
2022-09-13T11:29:34.562Z,1.70
2022-09-13T11:34:49.471Z,1.80
2022-09-13T11:40:00.772Z,1.33
2022-09-13T11:45:23.461Z,1.57
2022-09-13T11:50:38.121Z,2.00
2022-09-13T11:55:45.702Z,1.70
2022-09-13T12:00:55.672Z,1.70
2022-09-13T12:06:03.765Z,1.07
2022-09-13T12:11:15.940Z,1.03
2022-09-13T12:16:25.123Z,1.20
2022-09-13T12:21:33.562Z,0.90
2022-09-13T12:26:41.261Z,1.10
2022-09-13T12:31:44.866Z,1.00
2022-09-13T12:37:28.266Z,1.23
2022-09-13T12:43:03.567Z,1.57
2022-09-13T12:48:24.947Z,0.90
2022-09-13T12:53:57.047Z,1.33
2022-09-13T12:59:20.673Z,1.20
2022-09-13T13:04:28.055Z,1.43
2022-09-13T13:09:42.647Z,1.50
2022-09-13T13:14:53.852Z,1.20
2022-09-13T13:19:57.835Z,1.87
2022-09-13T13:25:38.096Z,1.80
2022-09-13T13:30:52.744Z,2.13
2022-09-13T13:36:01.165Z,1.73
2022-09-13T13:41:24.980Z,1.67
2022-09-13T13:46:31.173Z,1.77
2022-09-13T13:51:34.657Z,1.87
2022-09-13T13:56:50.370Z,1.90
2022-09-13T14:01:59.438Z,1.60
2022-09-13T14:07:21.069Z,1.57
2022-09-13T14:12:40.491Z,1.77
2022-09-13T14:18:13.267Z,1.60
2022-09-13T14:23:19.927Z,2.30
2022-09-13T14:28:25.916Z,1.80
2022-09-13T14:33:35.156Z,2.00
2022-09-13T14:38:38.974Z,2.00
2022-09-13T14:43:46.242Z,2.10
2022-09-13T14:48:52.514Z,1.80
2022-09-13T14:54:00.640Z,1.90
2022-09-13T14:59:13.165Z,2.50
2022-09-13T15:04:19.447Z,2.80
2022-09-13T15:09:29.241Z,2.73
2022-09-13T15:14:37.544Z,2.67
2022-09-13T15:19:43.295Z,2.30
2022-09-13T15:24:50.001Z,3.00
2022-09-13T15:29:56.833Z,2.93
2022-09-13T15:35:03.302Z,10.07
2022-09-13T15:40:18.938Z,4.30
2022-09-13T15:45:25.725Z,2.70
2022-09-13T15:50:31.966Z,2.33
2022-09-13T15:55:36.177Z,2.77
2022-09-13T16:00:41.538Z,2.47
2022-09-13T16:05:45.789Z,2.40
2022-09-13T16:10:49.342Z,3.20
2022-09-13T16:15:57.864Z,2.60
2022-09-13T16:21:02.297Z,2.83
2022-09-13T16:26:06.769Z,2.60
2022-09-13T16:31:12.380Z,2.83
2022-09-13T16:36:16.017Z,2.60
2022-09-13T16:41:19.631Z,3.03
2022-09-13T16:46:25.812Z,3.23
2022-09-13T16:51:29.656Z,3.80
2022-09-13T16:56:35.780Z,2.27
2022-09-13T17:01:43.432Z,2.63
2022-09-13T17:06:47.733Z,2.70
2022-09-13T17:11:55.759Z,2.33
2022-09-13T17:17:03.999Z,3.00
2022-09-13T17:22:13.733Z,3.03
2022-09-13T17:27:21.922Z,2.63
2022-09-13T17:32:27.417Z,2.50
2022-09-13T17:37:31.683Z,2.53
2022-09-13T17:42:37.845Z,2.73
2022-09-13T17:47:43.485Z,2.80
2022-09-13T17:53:09.656Z,2.13
2022-09-13T17:58:20.961Z,2.67
2022-09-13T18:03:26.690Z,2.70
2022-09-13T18:08:37.388Z,2.83
2022-09-13T18:13:45.002Z,2.57
2022-09-13T18:19:02.620Z,3.10
2022-09-13T18:24:16.724Z,3.07
2022-09-13T18:29:22.338Z,2.90
2022-09-13T18:34:28.010Z,2.10
2022-09-13T18:39:32.077Z,3.57
2022-09-13T18:44:39.864Z,2.73
2022-09-13T18:49:45.278Z,2.80
2022-09-13T18:54:49.452Z,2.93
2022-09-13T18:59:54.100Z,2.83
2022-09-13T19:05:07.027Z,2.60
2022-09-13T19:10:16.004Z,2.80
2022-09-13T19:15:20.355Z,2.63
2022-09-13T19:20:26.781Z,2.73
2022-09-13T19:25:34.397Z,2.30
2022-09-13T19:30:41.185Z,2.50
2022-09-13T19:35:48.301Z,2.10
2022-09-13T19:41:00.539Z,2.40
2022-09-13T19:46:08.120Z,2.60
2022-09-13T19:51:19.427Z,2.43
2022-09-13T19:56:30.759Z,1.97
2022-09-13T20:01:37.102Z,2.90
2022-09-13T20:06:46.443Z,2.80
2022-09-13T20:11:52.115Z,2.40
2022-09-13T20:16:58.233Z,2.30
2022-09-13T20:22:11.091Z,2.40
2022-09-13T20:27:19.044Z,2.43
2022-09-13T20:32:23.040Z,2.47
2022-09-13T20:37:29.410Z,2.20
2022-09-13T20:42:36.430Z,2.03
2022-09-13T20:47:41.288Z,2.27
2022-09-13T20:52:53.240Z,1.90
2022-09-13T20:57:57.286Z,1.60
2022-09-13T21:03:03.145Z,2.10
2022-09-13T21:08:32.809Z,2.20
2022-09-13T21:13:38.437Z,2.00
2022-09-13T21:18:42.283Z,1.87
2022-09-13T21:23:48.072Z,2.03
2022-09-13T21:28:52.582Z,2.30
2022-09-13T21:33:57.118Z,2.47
2022-09-13T21:39:02.651Z,1.97
2022-09-13T21:44:06.734Z,2.17
2022-09-13T21:49:12.242Z,1.93
2022-09-13T21:54:19.686Z,2.20
2022-09-13T21:59:24.582Z,2.27
2022-09-13T22:04:28.488Z,1.90
2022-09-13T22:09:33.499Z,1.50
2022-09-13T22:14:36.939Z,2.00
2022-09-13T22:19:40.594Z,2.20
2022-09-13T22:24:46.806Z,1.93
2022-09-13T22:29:50.321Z,2.20
2022-09-13T22:34:53.804Z,3.20
2022-09-13T22:39:59.358Z,3.13
2022-09-13T22:45:03.121Z,2.93
2022-09-13T22:50:07.309Z,2.30
2022-09-13T22:55:12.253Z,2.53
2022-09-13T23:00:16.754Z,2.40
2022-09-13T23:05:20.253Z,3.00
2022-09-13T23:10:25.337Z,2.70
2022-09-13T23:15:28.911Z,2.60
2022-09-13T23:20:32.498Z,2.60
2022-09-13T23:25:37.699Z,4.43
2022-09-13T23:30:41.244Z,2.70
2022-09-13T23:35:45.845Z,2.60
2022-09-13T23:40:50.962Z,2.37
2022-09-13T23:45:54.704Z,2.40
2022-09-13T23:51:02.135Z,2.27
2022-09-13T23:56:08.567Z,2.30
